sensor_id;sensor_type;location;lat;lon;timestamp;noise_LAeq;noise_LA_min;noise_LA_max;noise_LA01;noise_LA95
69620;Laerm;57654;51.434;5.984;2024-01-27T00:00:00;36.62;35.19;39.25;;
69620;Laerm;57654;51.434;5.984;2024-01-27T00:00:11;36.71;35.18;42.22;;
69620;Laerm;57654;51.434;5.984;2024-01-27T00:00:21;39.20;34.98;58.06;;
69620;Laerm;57654;51.434;5.984;2024-01-27T00:00:32;36.73;34.78;41.78;;
69620;Laerm;57654;51.434;5.984;2024-01-27T00:00:42;36.52;35.17;40.64;;
69620;Laerm;57654;51.434;5.984;2024-01-27T00:00:52;36.53;35.09;41.01;;
69620;Laerm;57654;51.434;5.984;2024-01-27T00:01:02;38.11;34.67;55.92;;
69620;Laerm;57654;51.434;5.984;2024-01-27T00:01:13;36.38;34.84;39.83;;
69620;Laerm;57654;51.434;5.984;2024-01-27T00:01:23;36.38;35.06;40.07;;
69620;Laerm;57654;51.434;5.984;2024-01-27T00:01:33;36.29;34.79;38.84;;
69620;Laerm;57654;51.434;5.984;2024-01-27T00:01:43;36.38;34.37;43.38;;
69620;Laerm;57654;51.434;5.984;2024-01-27T00:01:54;36.31;34.61;44.65;;
69620;Laerm;57654;51.434;5.984;2024-01-27T00:02:04;36.30;34.66;42.54;;
69620;Laerm;57654;51.434;5.984;2024-01-27T00:02:14;36.09;34.68;38.97;;
69620;Laerm;57654;51.434;5.984;2024-01-27T00:02:24;35.98;34.26;39.02;;
69620;Laerm;57654;51.434;5.984;2024-01-27T00:02:35;35.93;34.51;39.19;;
69620;Laerm;57654;51.434;5.984;2024-01-27T00:02:45;35.82;34.12;40.48;;
69620;Laerm;57654;51.434;5.984;2024-01-27T00:02:55;35.76;33.82;38.20;;
69620;Laerm;57654;51.434;5.984;2024-01-27T00:03:06;35.68;33.59;38.98;;
69620;Laerm;57654;51.434;5.984;2024-01-27T00:03:16;35.64;34.07;38.36;;
69620;Laerm;57654;51.434;5.984;2024-01-27T00:03:26;35.63;33.96;38.24;;
69620;Laerm;57654;51.434;5.984;2024-01-27T00:03:36;35.62;33.99;39.34;;
69620;Laerm;57654;51.434;5.984;2024-01-27T00:03:47;35.53;33.78;38.06;;
69620;Laerm;57654;51.434;5.984;2024-01-27T00:03:57;35.55;34.25;39.05;;
69620;Laerm;57654;51.434;5.984;2024-01-27T00:04:07;35.55;34.23;38.04;;
69620;Laerm;57654;51.434;5.984;2024-01-27T00:04:17;35.53;34.32;38.04;;
69620;Laerm;57654;51.434;5.984;2024-01-27T00:04:28;36.10;34.33;48.75;;
69620;Laerm;57654;51.434;5.984;2024-01-27T00:04:38;35.58;34.19;42.67;;
69620;Laerm;57654;51.434;5.984;2024-01-27T00:04:48;35.54;34.33;38.53;;
69620;Laerm;57654;51.434;5.984;2024-01-27T00:04:58;35.57;33.90;39.42;;
69620;Laerm;57654;51.434;5.984;2024-01-27T00:05:09;35.49;34.00;38.41;;
69620;Laerm;57654;51.434;5.984;2024-01-27T00:05:19;33.41;30.99;43.66;;
69620;Laerm;57654;51.434;5.984;2024-01-27T00:05:29;32.61;30.97;37.65;;
69620;Laerm;57654;51.434;5.984;2024-01-27T00:05:39;38.10;30.72;58.65;;
69620;Laerm;57654;51.434;5.984;2024-01-27T00:05:49;32.47;30.71;37.15;;
69620;Laerm;57654;51.434;5.984;2024-01-27T00:06:00;36.47;30.82;54.91;;
69620;Laerm;57654;51.434;5.984;2024-01-27T00:06:10;36.76;30.92;57.22;;
69620;Laerm;57654;51.434;5.984;2024-01-27T00:06:20;32.63;31.01;41.35;;
69620;Laerm;57654;51.434;5.984;2024-01-27T00:06:30;32.75;30.86;38.63;;
69620;Laerm;57654;51.434;5.984;2024-01-27T00:06:41;38.58;30.60;58.80;;
69620;Laerm;57654;51.434;5.984;2024-01-27T00:06:51;32.49;30.93;36.64;;
69620;Laerm;57654;51.434;5.984;2024-01-27T00:07:01;43.28;30.99;64.86;;
69620;Laerm;57654;51.434;5.984;2024-01-27T00:07:11;32.58;30.81;37.53;;
69620;Laerm;57654;51.434;5.984;2024-01-27T00:07:22;32.45;30.59;36.11;;
69620;Laerm;57654;51.434;5.984;2024-01-27T00:07:32;32.48;30.43;39.77;;
69620;Laerm;57654;51.434;5.984;2024-01-27T00:07:42;32.52;30.80;36.85;;
69620;Laerm;57654;51.434;5.984;2024-01-27T00:07:52;32.37;30.51;36.60;;
69620;Laerm;57654;51.434;5.984;2024-01-27T00:08:02;32.45;30.61;36.39;;
69620;Laerm;57654;51.434;5.984;2024-01-27T00:08:13;32.40;30.82;36.47;;
69620;Laerm;57654;51.434;5.984;2024-01-27T00:08:23;32.71;30.71;44.19;;
69620;Laerm;57654;51.434;5.984;2024-01-27T00:08:33;32.88;30.82;45.19;;
69620;Laerm;57654;51.434;5.984;2024-01-27T00:08:43;32.37;30.57;36.43;;
69620;Laerm;57654;51.434;5.984;2024-01-27T00:08:54;32.49;30.46;37.51;;
69620;Laerm;57654;51.434;5.984;2024-01-27T00:09:04;32.60;30.59;39.93;;
69620;Laerm;57654;51.434;5.984;2024-01-27T00:09:16;32.26;30.45;37.13;;
69620;Laerm;57654;51.434;5.984;2024-01-27T00:09:26;32.60;30.70;36.96;;
69620;Laerm;57654;51.434;5.984;2024-01-27T00:09:36;32.22;30.31;37.29;;
69620;Laerm;57654;51.434;5.984;2024-01-27T00:09:46;32.39;30.79;37.08;;
69620;Laerm;57654;51.434;5.984;2024-01-27T00:09:57;33.00;30.83;45.72;;
69620;Laerm;57654;51.434;5.984;2024-01-27T00:10:09;35.94;30.63;56.57;;
69620;Laerm;57654;51.434;5.984;2024-01-27T00:10:19;32.44;30.79;38.39;;
69620;Laerm;57654;51.434;5.984;2024-01-27T00:10:29;32.45;30.71;40.37;;
69620;Laerm;57654;51.434;5.984;2024-01-27T00:10:40;32.78;30.58;39.17;;
69620;Laerm;57654;51.434;5.984;2024-01-27T00:10:50;32.61;30.62;40.30;;
69620;Laerm;57654;51.434;5.984;2024-01-27T00:11:00;32.46;30.81;37.71;;
69620;Laerm;57654;51.434;5.984;2024-01-27T00:11:11;32.41;30.82;37.29;;
69620;Laerm;57654;51.434;5.984;2024-01-27T00:11:21;37.94;30.92;57.74;;
69620;Laerm;57654;51.434;5.984;2024-01-27T00:11:34;37.05;30.73;58.98;;
69620;Laerm;57654;51.434;5.984;2024-01-27T00:11:44;32.46;30.69;38.61;;
69620;Laerm;57654;51.434;5.984;2024-01-27T00:11:55;39.79;30.76;61.11;;
69620;Laerm;57654;51.434;5.984;2024-01-27T00:12:05;32.67;30.54;43.25;;
69620;Laerm;57654;51.434;5.984;2024-01-27T00:12:16;32.46;30.59;37.63;;
69620;Laerm;57654;51.434;5.984;2024-01-27T00:12:26;47.29;30.82;63.83;;
69620;Laerm;57654;51.434;5.984;2024-01-27T00:12:36;32.46;30.88;38.78;;
69620;Laerm;57654;51.434;5.984;2024-01-27T00:12:47;32.75;30.71;42.83;;
69620;Laerm;57654;51.434;5.984;2024-01-27T00:12:57;33.21;30.68;47.41;;
69620;Laerm;57654;51.434;5.984;2024-01-27T00:13:07;32.53;30.75;37.61;;
69620;Laerm;57654;51.434;5.984;2024-01-27T00:13:18;32.30;30.70;37.22;;
69620;Laerm;57654;51.434;5.984;2024-01-27T00:13:28;32.48;30.78;38.55;;
69620;Laerm;57654;51.434;5.984;2024-01-27T00:13:38;32.25;30.79;37.35;;
69620;Laerm;57654;51.434;5.984;2024-01-27T00:13:48;33.00;30.79;43.62;;
69620;Laerm;57654;51.434;5.984;2024-01-27T00:13:59;32.41;30.55;37.40;;
69620;Laerm;57654;51.434;5.984;2024-01-27T00:14:09;32.56;30.65;39.24;;
69620;Laerm;57654;51.434;5.984;2024-01-27T00:14:19;32.39;30.63;38.75;;
69620;Laerm;57654;51.434;5.984;2024-01-27T00:14:29;32.38;30.50;37.00;;
69620;Laerm;57654;51.434;5.984;2024-01-27T00:14:40;32.74;30.58;42.33;;
69620;Laerm;57654;51.434;5.984;2024-01-27T00:14:50;34.41;30.50;50.28;;
69620;Laerm;57654;51.434;5.984;2024-01-27T00:15:00;32.46;30.61;37.64;;
69620;Laerm;57654;51.434;5.984;2024-01-27T00:15:11;32.41;30.72;37.02;;
69620;Laerm;57654;51.434;5.984;2024-01-27T00:15:21;32.51;30.49;37.52;;
69620;Laerm;57654;51.434;5.984;2024-01-27T00:15:31;32.33;30.69;37.71;;
69620;Laerm;57654;51.434;5.984;2024-01-27T00:15:42;32.91;30.60;43.82;;
69620;Laerm;57654;51.434;5.984;2024-01-27T00:15:52;32.44;30.69;36.45;;
69620;Laerm;57654;51.434;5.984;2024-01-27T00:16:04;32.35;30.39;37.04;;
69620;Laerm;57654;51.434;5.984;2024-01-27T00:16:14;32.20;30.57;36.86;;
69620;Laerm;57654;51.434;5.984;2024-01-27T00:16:25;32.44;30.59;37.81;;
69620;Laerm;57654;51.434;5.984;2024-01-27T00:16:35;32.35;30.88;36.31;;
69620;Laerm;57654;51.434;5.984;2024-01-27T00:16:45;32.37;30.72;36.95;;
69620;Laerm;57654;51.434;5.984;2024-01-27T00:16:55;32.87;30.69;44.55;;
69620;Laerm;57654;51.434;5.984;2024-01-27T00:17:06;32.51;30.73;38.36;;
69620;Laerm;57654;51.434;5.984;2024-01-27T00:17:16;32.33;30.80;36.35;;
69620;Laerm;57654;51.434;5.984;2024-01-27T00:17:26;32.27;30.60;37.31;;
69620;Laerm;57654;51.434;5.984;2024-01-27T00:17:37;33.55;30.81;49.61;;
69620;Laerm;57654;51.434;5.984;2024-01-27T00:17:48;32.37;30.67;37.44;;
69620;Laerm;57654;51.434;5.984;2024-01-27T00:17:58;32.43;30.79;36.70;;
69620;Laerm;57654;51.434;5.984;2024-01-27T00:18:08;32.39;30.37;36.63;;
69620;Laerm;57654;51.434;5.984;2024-01-27T00:18:18;32.40;30.69;37.23;;
69620;Laerm;57654;51.434;5.984;2024-01-27T00:18:29;32.34;30.65;37.37;;
69620;Laerm;57654;51.434;5.984;2024-01-27T00:18:39;32.52;30.69;36.94;;
69620;Laerm;57654;51.434;5.984;2024-01-27T00:18:49;32.45;30.46;36.86;;
69620;Laerm;57654;51.434;5.984;2024-01-27T00:18:59;32.72;30.67;42.41;;
69620;Laerm;57654;51.434;5.984;2024-01-27T00:19:10;32.32;30.64;37.67;;
69620;Laerm;57654;51.434;5.984;2024-01-27T00:19:20;32.18;30.78;36.70;;
69620;Laerm;57654;51.434;5.984;2024-01-27T00:19:30;32.29;30.44;36.88;;
69620;Laerm;57654;51.434;5.984;2024-01-27T00:19:41;32.31;30.57;36.85;;
69620;Laerm;57654;51.434;5.984;2024-01-27T00:19:51;32.40;30.52;37.23;;
69620;Laerm;57654;51.434;5.984;2024-01-27T00:20:02;32.40;30.46;36.85;;
69620;Laerm;57654;51.434;5.984;2024-01-27T00:20:12;32.47;30.76;36.76;;
69620;Laerm;57654;51.434;5.984;2024-01-27T00:20:23;32.44;30.61;37.96;;
69620;Laerm;57654;51.434;5.984;2024-01-27T00:20:33;32.73;30.42;38.42;;
69620;Laerm;57654;51.434;5.984;2024-01-27T00:20:43;32.56;30.68;36.59;;
69620;Laerm;57654;51.434;5.984;2024-01-27T00:20:54;32.47;30.27;36.79;;
69620;Laerm;57654;51.434;5.984;2024-01-27T00:21:07;32.49;30.58;37.40;;
69620;Laerm;57654;51.434;5.984;2024-01-27T00:21:17;32.57;30.70;36.79;;
69620;Laerm;57654;51.434;5.984;2024-01-27T00:21:27;32.49;30.72;37.69;;
69620;Laerm;57654;51.434;5.984;2024-01-27T00:21:38;32.54;30.43;37.50;;
69620;Laerm;57654;51.434;5.984;2024-01-27T00:21:48;32.44;30.60;36.57;;
69620;Laerm;57654;51.434;5.984;2024-01-27T00:21:58;32.36;30.49;37.87;;
69620;Laerm;57654;51.434;5.984;2024-01-27T00:22:08;32.41;30.44;37.21;;
69620;Laerm;57654;51.434;5.984;2024-01-27T00:22:19;32.48;30.69;36.75;;
69620;Laerm;57654;51.434;5.984;2024-01-27T00:22:30;32.53;30.55;36.52;;
69620;Laerm;57654;51.434;5.984;2024-01-27T00:22:41;32.34;30.49;37.27;;
69620;Laerm;57654;51.434;5.984;2024-01-27T00:22:51;32.29;30.45;36.44;;
69620;Laerm;57654;51.434;5.984;2024-01-27T00:23:01;32.21;30.32;37.15;;
69620;Laerm;57654;51.434;5.984;2024-01-27T00:23:12;32.19;30.60;36.47;;
69620;Laerm;57654;51.434;5.984;2024-01-27T00:23:22;32.22;30.51;35.94;;
69620;Laerm;57654;51.434;5.984;2024-01-27T00:23:32;32.18;30.62;37.49;;
69620;Laerm;57654;51.434;5.984;2024-01-27T00:23:44;32.25;30.20;36.93;;
69620;Laerm;57654;51.434;5.984;2024-01-27T00:23:54;32.29;30.42;37.16;;
69620;Laerm;57654;51.434;5.984;2024-01-27T00:24:10;32.21;30.29;37.16;;
69620;Laerm;57654;51.434;5.984;2024-01-27T00:24:20;32.27;30.68;37.21;;
69620;Laerm;57654;51.434;5.984;2024-01-27T00:24:31;32.09;30.42;36.55;;
69620;Laerm;57654;51.434;5.984;2024-01-27T00:24:41;32.10;30.64;36.74;;
69620;Laerm;57654;51.434;5.984;2024-01-27T00:24:52;32.17;30.60;35.89;;
69620;Laerm;57654;51.434;5.984;2024-01-27T00:25:02;32.23;30.29;37.02;;
69620;Laerm;57654;51.434;5.984;2024-01-27T00:25:12;32.19;30.52;37.07;;
69620;Laerm;57654;51.434;5.984;2024-01-27T00:25:23;32.06;30.44;36.68;;
69620;Laerm;57654;51.434;5.984;2024-01-27T00:25:33;32.16;30.16;36.50;;
69620;Laerm;57654;51.434;5.984;2024-01-27T00:25:43;32.22;30.70;35.77;;
69620;Laerm;57654;51.434;5.984;2024-01-27T00:25:53;32.17;30.40;36.87;;
69620;Laerm;57654;51.434;5.984;2024-01-27T00:26:04;32.09;30.38;36.90;;
69620;Laerm;57654;51.434;5.984;2024-01-27T00:26:14;32.03;30.11;36.67;;
69620;Laerm;57654;51.434;5.984;2024-01-27T00:26:25;32.00;30.24;36.41;;
69620;Laerm;57654;51.434;5.984;2024-01-27T00:26:35;32.09;29.74;36.04;;
69620;Laerm;57654;51.434;5.984;2024-01-27T00:26:45;33.27;30.39;39.46;;
69620;Laerm;57654;51.434;5.984;2024-01-27T00:26:56;33.26;30.66;37.42;;
69620;Laerm;57654;51.434;5.984;2024-01-27T00:27:06;34.05;30.61;44.79;;
69620;Laerm;57654;51.434;5.984;2024-01-27T00:27:17;40.97;31.01;56.52;;
69620;Laerm;57654;51.434;5.984;2024-01-27T00:27:27;40.30;30.73;59.40;;
69620;Laerm;57654;51.434;5.984;2024-01-27T00:27:37;35.01;30.59;42.16;;
69620;Laerm;57654;51.434;5.984;2024-01-27T00:27:47;34.17;30.81;43.25;;
69620;Laerm;57654;51.434;5.984;2024-01-27T00:27:57;34.14;30.65;42.70;;
69620;Laerm;57654;51.434;5.984;2024-01-27T00:28:08;32.18;30.23;36.22;;
69620;Laerm;57654;51.434;5.984;2024-01-27T00:28:18;32.42;30.19;42.90;;
69620;Laerm;57654;51.434;5.984;2024-01-27T00:28:28;31.89;30.11;36.58;;
69620;Laerm;57654;51.434;5.984;2024-01-27T00:28:38;32.45;30.12;37.75;;
69620;Laerm;57654;51.434;5.984;2024-01-27T00:28:48;33.78;30.79;42.02;;
69620;Laerm;57654;51.434;5.984;2024-01-27T00:28:59;36.33;30.89;46.36;;
69620;Laerm;57654;51.434;5.984;2024-01-27T00:29:09;44.91;31.72;55.50;;
69620;Laerm;57654;51.434;5.984;2024-01-27T00:29:20;49.16;39.57;61.04;;
69620;Laerm;57654;51.434;5.984;2024-01-27T00:29:30;51.12;40.13;63.95;;
69620;Laerm;57654;51.434;5.984;2024-01-27T00:29:40;54.05;31.97;72.55;;
69620;Laerm;57654;51.434;5.984;2024-01-27T00:29:50;32.13;30.23;36.83;;
69620;Laerm;57654;51.434;5.984;2024-01-27T00:30:00;31.90;30.30;36.88;;
69620;Laerm;57654;51.434;5.984;2024-01-27T00:30:11;31.94;30.32;36.33;;
69620;Laerm;57654;51.434;5.984;2024-01-27T00:30:21;31.90;29.86;36.73;;
69620;Laerm;57654;51.434;5.984;2024-01-27T00:30:31;31.79;30.21;36.53;;
69620;Laerm;57654;51.434;5.984;2024-01-27T00:30:42;31.87;29.95;37.40;;
69620;Laerm;57654;51.434;5.984;2024-01-27T00:30:52;33.99;29.95;46.67;;
69620;Laerm;57654;51.434;5.984;2024-01-27T00:31:02;31.82;29.90;36.39;;
69620;Laerm;57654;51.434;5.984;2024-01-27T00:31:12;31.92;29.87;35.93;;
69620;Laerm;57654;51.434;5.984;2024-01-27T00:31:23;31.68;30.02;36.57;;
69620;Laerm;57654;51.434;5.984;2024-01-27T00:31:33;31.82;30.17;37.20;;
69620;Laerm;57654;51.434;5.984;2024-01-27T00:31:43;35.81;30.48;42.62;;
69620;Laerm;57654;51.434;5.984;2024-01-27T00:31:53;36.68;35.16;41.12;;
69620;Laerm;57654;51.434;5.984;2024-01-27T00:32:04;36.61;35.34;39.62;;
69620;Laerm;57654;51.434;5.984;2024-01-27T00:32:15;35.37;30.13;39.11;;
69620;Laerm;57654;51.434;5.984;2024-01-27T00:32:25;31.85;30.27;36.94;;
69620;Laerm;57654;51.434;5.984;2024-01-27T00:32:35;31.93;30.28;36.51;;
69620;Laerm;57654;51.434;5.984;2024-01-27T00:32:45;31.80;30.29;37.18;;
69620;Laerm;57654;51.434;5.984;2024-01-27T00:32:56;31.86;30.10;36.68;;
69620;Laerm;57654;51.434;5.984;2024-01-27T00:33:06;32.02;30.17;37.55;;
69620;Laerm;57654;51.434;5.984;2024-01-27T00:33:16;31.85;30.32;37.95;;
69620;Laerm;57654;51.434;5.984;2024-01-27T00:33:26;31.78;30.09;36.46;;
69620;Laerm;57654;51.434;5.984;2024-01-27T00:33:37;31.76;30.33;36.66;;
69620;Laerm;57654;51.434;5.984;2024-01-27T00:33:47;31.63;30.01;36.37;;
69620;Laerm;57654;51.434;5.984;2024-01-27T00:33:57;31.65;29.96;36.49;;
69620;Laerm;57654;51.434;5.984;2024-01-27T00:34:07;31.83;29.86;36.72;;
69620;Laerm;57654;51.434;5.984;2024-01-27T00:34:18;31.54;29.74;36.50;;
69620;Laerm;57654;51.434;5.984;2024-01-27T00:34:28;31.78;29.93;37.18;;
69620;Laerm;57654;51.434;5.984;2024-01-27T00:34:38;31.96;29.94;39.87;;
69620;Laerm;57654;51.434;5.984;2024-01-27T00:34:48;31.79;29.94;36.59;;
69620;Laerm;57654;51.434;5.984;2024-01-27T00:34:59;31.87;29.85;41.07;;
69620;Laerm;57654;51.434;5.984;2024-01-27T00:35:09;31.88;29.87;36.55;;
69620;Laerm;57654;51.434;5.984;2024-01-27T00:35:21;31.74;29.95;36.79;;
69620;Laerm;57654;51.434;5.984;2024-01-27T00:35:31;31.83;30.06;36.64;;
69620;Laerm;57654;51.434;5.984;2024-01-27T00:35:42;36.33;30.18;51.75;;
69620;Laerm;57654;51.434;5.984;2024-01-27T00:35:52;38.65;36.74;42.16;;
69620;Laerm;57654;51.434;5.984;2024-01-27T00:36:03;37.64;36.08;40.08;;
69620;Laerm;57654;51.434;5.984;2024-01-27T00:36:13;37.75;36.04;39.67;;
69620;Laerm;57654;51.434;5.984;2024-01-27T00:36:23;37.15;35.66;39.28;;
69620;Laerm;57654;51.434;5.984;2024-01-27T00:36:33;36.87;35.52;39.90;;
69620;Laerm;57654;51.434;5.984;2024-01-27T00:36:46;36.47;35.25;39.25;;
69620;Laerm;57654;51.434;5.984;2024-01-27T00:36:58;36.90;35.42;39.34;;
69620;Laerm;57654;51.434;5.984;2024-01-27T00:37:09;36.90;35.50;39.53;;
69620;Laerm;57654;51.434;5.984;2024-01-27T00:37:19;37.01;35.56;39.25;;
69620;Laerm;57654;51.434;5.984;2024-01-27T00:37:29;36.90;35.43;41.57;;
69620;Laerm;57654;51.434;5.984;2024-01-27T00:37:43;36.76;35.15;38.97;;
69620;Laerm;57654;51.434;5.984;2024-01-27T00:37:53;36.74;35.19;38.93;;
69620;Laerm;57654;51.434;5.984;2024-01-27T00:38:03;36.80;34.53;39.41;;
69620;Laerm;57654;51.434;5.984;2024-01-27T00:38:13;36.71;35.02;41.56;;
69620;Laerm;57654;51.434;5.984;2024-01-27T00:38:23;36.60;34.92;39.11;;
69620;Laerm;57654;51.434;5.984;2024-01-27T00:38:34;37.01;35.58;40.01;;
69620;Laerm;57654;51.434;5.984;2024-01-27T00:38:44;37.09;35.27;39.71;;
69620;Laerm;57654;51.434;5.984;2024-01-27T00:38:54;37.44;34.98;42.13;;
69620;Laerm;57654;51.434;5.984;2024-01-27T00:39:05;44.73;38.69;48.16;;
69620;Laerm;57654;51.434;5.984;2024-01-27T00:39:16;44.40;42.69;46.88;;
69620;Laerm;57654;51.434;5.984;2024-01-27T00:39:26;38.84;34.83;44.19;;
69620;Laerm;57654;51.434;5.984;2024-01-27T00:39:36;36.00;34.67;38.46;;
69620;Laerm;57654;51.434;5.984;2024-01-27T00:39:47;35.88;34.50;38.55;;
69620;Laerm;57654;51.434;5.984;2024-01-27T00:39:57;35.84;34.25;38.94;;
69620;Laerm;57654;51.434;5.984;2024-01-27T00:40:10;35.76;34.51;38.70;;
69620;Laerm;57654;51.434;5.984;2024-01-27T00:40:21;35.76;34.66;38.61;;
69620;Laerm;57654;51.434;5.984;2024-01-27T00:40:31;35.64;34.36;38.39;;
69620;Laerm;57654;51.434;5.984;2024-01-27T00:40:41;35.61;33.93;38.17;;
69620;Laerm;57654;51.434;5.984;2024-01-27T00:40:51;35.43;34.34;37.92;;
69620;Laerm;57654;51.434;5.984;2024-01-27T00:41:02;35.38;33.98;38.50;;
69620;Laerm;57654;51.434;5.984;2024-01-27T00:41:18;35.45;34.13;38.86;;
69620;Laerm;57654;51.434;5.984;2024-01-27T00:41:28;35.53;34.10;38.95;;
69620;Laerm;57654;51.434;5.984;2024-01-27T00:41:38;35.33;34.09;37.67;;
69620;Laerm;57654;51.434;5.984;2024-01-27T00:41:49;35.37;33.59;38.01;;
69620;Laerm;57654;51.434;5.984;2024-01-27T00:41:59;35.24;34.06;37.51;;
69620;Laerm;57654;51.434;5.984;2024-01-27T00:42:09;35.25;33.89;37.87;;
69620;Laerm;57654;51.434;5.984;2024-01-27T00:42:20;35.28;33.67;38.11;;
69620;Laerm;57654;51.434;5.984;2024-01-27T00:42:34;35.13;33.88;37.70;;
69620;Laerm;57654;51.434;5.984;2024-01-27T00:42:44;35.15;33.80;38.32;;
69620;Laerm;57654;51.434;5.984;2024-01-27T00:42:54;35.20;33.41;38.70;;
69620;Laerm;57654;51.434;5.984;2024-01-27T00:43:04;35.31;33.61;39.79;;
69620;Laerm;57654;51.434;5.984;2024-01-27T00:43:15;35.10;33.76;37.94;;
69620;Laerm;57654;51.434;5.984;2024-01-27T00:43:25;35.19;33.90;38.61;;
69620;Laerm;57654;51.434;5.984;2024-01-27T00:43:35;32.10;29.70;39.25;;
69620;Laerm;57654;51.434;5.984;2024-01-27T00:43:45;31.23;29.35;36.96;;
69620;Laerm;57654;51.434;5.984;2024-01-27T00:43:55;30.92;29.30;36.11;;
69620;Laerm;57654;51.434;5.984;2024-01-27T00:44:06;30.89;29.06;37.05;;
69620;Laerm;57654;51.434;5.984;2024-01-27T00:44:16;30.72;29.15;35.90;;
69620;Laerm;57654;51.434;5.984;2024-01-27T00:44:27;30.84;29.08;36.87;;
69620;Laerm;57654;51.434;5.984;2024-01-27T00:44:37;30.59;28.93;36.26;;
69620;Laerm;57654;51.434;5.984;2024-01-27T00:44:47;30.68;28.41;36.15;;
69620;Laerm;57654;51.434;5.984;2024-01-27T00:44:57;30.30;28.70;35.99;;
69620;Laerm;57654;51.434;5.984;2024-01-27T00:45:08;30.29;28.44;36.60;;
69620;Laerm;57654;51.434;5.984;2024-01-27T00:45:18;30.40;28.64;36.09;;
69620;Laerm;57654;51.434;5.984;2024-01-27T00:45:29;30.15;28.25;36.05;;
69620;Laerm;57654;51.434;5.984;2024-01-27T00:45:40;30.17;28.44;36.61;;
69620;Laerm;57654;51.434;5.984;2024-01-27T00:45:50;29.94;28.18;36.71;;
69620;Laerm;57654;51.434;5.984;2024-01-27T00:46:00;29.75;28.15;35.45;;
69620;Laerm;57654;51.434;5.984;2024-01-27T00:46:10;29.75;28.13;36.54;;
69620;Laerm;57654;51.434;5.984;2024-01-27T00:46:21;29.81;28.04;35.63;;
69620;Laerm;57654;51.434;5.984;2024-01-27T00:46:31;29.70;27.85;35.39;;
69620;Laerm;57654;51.434;5.984;2024-01-27T00:46:41;29.54;27.66;35.92;;
69620;Laerm;57654;51.434;5.984;2024-01-27T00:46:52;29.61;27.93;36.13;;
69620;Laerm;57654;51.434;5.984;2024-01-27T00:47:02;29.78;28.08;37.51;;
69620;Laerm;57654;51.434;5.984;2024-01-27T00:47:13;29.67;27.85;36.79;;
69620;Laerm;57654;51.434;5.984;2024-01-27T00:47:23;29.47;28.08;35.62;;
69620;Laerm;57654;51.434;5.984;2024-01-27T00:47:33;29.68;27.79;36.36;;
69620;Laerm;57654;51.434;5.984;2024-01-27T00:47:44;29.55;27.94;36.27;;
69620;Laerm;57654;51.434;5.984;2024-01-27T00:47:54;29.47;27.87;36.13;;
69620;Laerm;57654;51.434;5.984;2024-01-27T00:48:05;29.41;27.92;35.13;;
69620;Laerm;57654;51.434;5.984;2024-01-27T00:48:15;29.63;27.67;36.75;;
69620;Laerm;57654;51.434;5.984;2024-01-27T00:48:25;29.44;27.69;36.01;;
69620;Laerm;57654;51.434;5.984;2024-01-27T00:48:36;29.45;27.78;35.89;;
69620;Laerm;57654;51.434;5.984;2024-01-27T00:48:46;29.54;27.72;36.14;;
69620;Laerm;57654;51.434;5.984;2024-01-27T00:48:56;29.54;27.54;35.98;;
69620;Laerm;57654;51.434;5.984;2024-01-27T00:49:07;29.49;27.90;36.21;;
69620;Laerm;57654;51.434;5.984;2024-01-27T00:49:17;29.48;27.81;35.62;;
69620;Laerm;57654;51.434;5.984;2024-01-27T00:49:28;29.49;27.82;36.05;;
69620;Laerm;57654;51.434;5.984;2024-01-27T00:49:38;29.48;27.82;36.12;;
69620;Laerm;57654;51.434;5.984;2024-01-27T00:49:48;29.61;27.65;36.97;;
69620;Laerm;57654;51.434;5.984;2024-01-27T00:49:59;29.66;27.90;36.66;;
69620;Laerm;57654;51.434;5.984;2024-01-27T00:50:09;29.44;28.00;36.35;;
69620;Laerm;57654;51.434;5.984;2024-01-27T00:50:19;29.53;27.43;35.76;;
69620;Laerm;57654;51.434;5.984;2024-01-27T00:50:29;29.57;27.62;36.14;;
69620;Laerm;57654;51.434;5.984;2024-01-27T00:50:40;29.49;27.87;36.25;;
69620;Laerm;57654;51.434;5.984;2024-01-27T00:50:50;29.51;27.67;35.87;;
69620;Laerm;57654;51.434;5.984;2024-01-27T00:51:00;29.59;27.69;36.14;;
69620;Laerm;57654;51.434;5.984;2024-01-27T00:51:10;29.67;27.68;37.82;;
69620;Laerm;57654;51.434;5.984;2024-01-27T00:51:20;29.50;27.95;36.13;;
69620;Laerm;57654;51.434;5.984;2024-01-27T00:51:32;29.55;27.89;35.70;;
69620;Laerm;57654;51.434;5.984;2024-01-27T00:51:42;29.62;27.74;36.75;;
69620;Laerm;57654;51.434;5.984;2024-01-27T00:51:52;29.44;27.87;36.64;;
69620;Laerm;57654;51.434;5.984;2024-01-27T00:52:03;29.67;27.85;36.55;;
69620;Laerm;57654;51.434;5.984;2024-01-27T00:52:13;30.04;28.01;35.36;;
69620;Laerm;57654;51.434;5.984;2024-01-27T00:52:23;29.90;27.97;36.70;;
69620;Laerm;57654;51.434;5.984;2024-01-27T00:52:34;29.54;27.87;36.46;;
69620;Laerm;57654;51.434;5.984;2024-01-27T00:52:44;29.50;27.65;36.25;;
69620;Laerm;57654;51.434;5.984;2024-01-27T00:52:55;29.54;27.70;36.37;;
69620;Laerm;57654;51.434;5.984;2024-01-27T00:53:05;29.52;27.76;35.80;;
69620;Laerm;57654;51.434;5.984;2024-01-27T00:53:15;29.70;27.89;40.44;;
69620;Laerm;57654;51.434;5.984;2024-01-27T00:53:25;29.53;27.78;37.36;;
69620;Laerm;57654;51.434;5.984;2024-01-27T00:53:36;29.46;27.62;36.08;;
69620;Laerm;57654;51.434;5.984;2024-01-27T00:53:46;29.52;27.54;36.65;;
69620;Laerm;57654;51.434;5.984;2024-01-27T00:53:56;29.54;27.65;35.75;;
69620;Laerm;57654;51.434;5.984;2024-01-27T00:54:06;29.40;27.62;35.41;;
69620;Laerm;57654;51.434;5.984;2024-01-27T00:54:17;29.47;27.59;37.19;;
69620;Laerm;57654;51.434;5.984;2024-01-27T00:54:27;29.53;27.79;36.55;;
69620;Laerm;57654;51.434;5.984;2024-01-27T00:54:37;29.51;27.65;36.73;;
69620;Laerm;57654;51.434;5.984;2024-01-27T00:54:47;29.54;27.73;35.44;;
69620;Laerm;57654;51.434;5.984;2024-01-27T00:54:58;29.59;27.75;35.72;;
69620;Laerm;57654;51.434;5.984;2024-01-27T00:55:08;29.64;27.85;36.23;;
69620;Laerm;57654;51.434;5.984;2024-01-27T00:55:18;29.50;27.64;36.14;;
69620;Laerm;57654;51.434;5.984;2024-01-27T00:55:29;29.55;27.61;36.50;;
69620;Laerm;57654;51.434;5.984;2024-01-27T00:55:39;29.55;27.81;36.34;;
69620;Laerm;57654;51.434;5.984;2024-01-27T00:55:49;29.50;27.91;36.21;;
69620;Laerm;57654;51.434;5.984;2024-01-27T00:56:00;29.66;27.67;37.26;;
69620;Laerm;57654;51.434;5.984;2024-01-27T00:56:11;29.62;28.11;36.27;;
69620;Laerm;57654;51.434;5.984;2024-01-27T00:56:21;29.51;27.83;35.74;;
69620;Laerm;57654;51.434;5.984;2024-01-27T00:56:32;29.62;27.84;35.90;;
69620;Laerm;57654;51.434;5.984;2024-01-27T00:56:42;29.68;27.74;36.19;;
69620;Laerm;57654;51.434;5.984;2024-01-27T00:56:52;29.54;27.81;35.02;;
69620;Laerm;57654;51.434;5.984;2024-01-27T00:57:03;29.50;27.95;35.74;;
69620;Laerm;57654;51.434;5.984;2024-01-27T00:57:13;29.57;27.90;35.92;;
69620;Laerm;57654;51.434;5.984;2024-01-27T00:57:23;29.61;28.03;36.09;;
69620;Laerm;57654;51.434;5.984;2024-01-27T00:57:35;29.63;27.97;36.28;;
69620;Laerm;57654;51.434;5.984;2024-01-27T00:57:46;29.63;27.83;36.41;;
69620;Laerm;57654;51.434;5.984;2024-01-27T00:57:56;29.81;27.58;37.63;;
69620;Laerm;57654;51.434;5.984;2024-01-27T00:58:06;29.35;27.37;36.52;;
69620;Laerm;57654;51.434;5.984;2024-01-27T00:58:17;29.12;27.27;35.76;;